createdAt,value
2022-08-28T00:02:00.930Z,21.90
2022-08-28T00:04:46.586Z,21.90
2022-08-28T00:07:31.870Z,21.80
2022-08-28T00:10:20.015Z,21.90
2022-08-28T00:13:13.767Z,21.80
2022-08-28T00:16:03.069Z,21.90
2022-08-28T00:18:48.343Z,21.90
2022-08-28T00:21:33.881Z,21.90
2022-08-28T00:24:19.311Z,21.90
2022-08-28T00:27:23.267Z,21.90
2022-08-28T00:30:09.020Z,21.90
2022-08-28T00:32:57.457Z,21.90
2022-08-28T00:35:43.398Z,21.90
2022-08-28T00:38:29.508Z,21.90
2022-08-28T00:41:15.131Z,21.80
2022-08-28T00:44:17.015Z,21.80
2022-08-28T00:47:02.692Z,21.70
2022-08-28T00:49:51.283Z,21.80
2022-08-28T00:52:37.310Z,21.70
2022-08-28T00:55:25.524Z,21.70
2022-08-28T00:58:11.881Z,21.70
2022-08-28T01:00:57.436Z,21.70
2022-08-28T01:03:43.195Z,21.70
2022-08-28T01:06:28.718Z,21.70
2022-08-28T01:09:15.369Z,21.70
2022-08-28T01:12:14.375Z,21.70
2022-08-28T01:15:03.770Z,21.70
2022-08-28T01:17:53.328Z,21.70
2022-08-28T01:20:46.817Z,21.60
2022-08-28T01:23:56.148Z,21.60
2022-08-28T01:26:42.343Z,21.60
2022-08-28T01:29:29.614Z,21.60
2022-08-28T01:32:27.699Z,21.60
2022-08-28T01:35:19.936Z,21.50
2022-08-28T01:38:05.427Z,21.50
2022-08-28T01:40:53.592Z,21.50
2022-08-28T01:43:40.308Z,21.40
2022-08-28T01:46:25.789Z,21.40
2022-08-28T01:49:12.008Z,21.40
2022-08-28T01:51:58.476Z,21.40
2022-08-28T01:54:43.797Z,21.20
2022-08-28T01:57:29.081Z,21.20
2022-08-28T02:00:16.184Z,21.10
2022-08-28T02:03:01.915Z,21.20
2022-08-28T02:05:47.465Z,21.20
2022-08-28T02:08:32.564Z,21.20
2022-08-28T02:11:18.005Z,21.20
2022-08-28T02:14:03.501Z,21.20
2022-08-28T02:16:49.837Z,21.30
2022-08-28T02:19:35.361Z,21.30
2022-08-28T02:22:20.386Z,21.30
2022-08-28T02:25:07.359Z,21.10
2022-08-28T02:27:52.982Z,21.10
2022-08-28T02:30:39.846Z,21.20
2022-08-28T02:33:25.543Z,21.20
2022-08-28T02:36:12.905Z,21.20
2022-08-28T02:38:58.547Z,21.20
2022-08-28T02:41:43.789Z,21.20
2022-08-28T02:44:29.029Z,21.20
2022-08-28T02:47:15.239Z,21.10
2022-08-28T02:50:00.316Z,21.10
2022-08-28T02:52:46.632Z,21.20
2022-08-28T02:55:34.205Z,21.10
2022-08-28T02:58:19.913Z,21.10
2022-08-28T03:01:07.704Z,21.10
2022-08-28T03:03:53.820Z,21.10
2022-08-28T03:06:38.941Z,21.10
2022-08-28T03:09:24.592Z,21.10
2022-08-28T03:12:13.024Z,21.20
2022-08-28T03:14:58.537Z,21.10
2022-08-28T03:17:44.031Z,21.20
2022-08-28T03:20:29.415Z,21.20
2022-08-28T03:23:26.649Z,21.10
2022-08-28T03:26:18.375Z,21.20
2022-08-28T03:29:03.999Z,21.20
2022-08-28T03:31:49.339Z,21.20
2022-08-28T03:34:34.825Z,21.20
2022-08-28T03:37:20.524Z,21.20
2022-08-28T03:40:07.343Z,21.20
2022-08-28T03:42:53.788Z,21.20
2022-08-28T03:45:41.485Z,21.20
2022-08-28T03:48:33.463Z,21.10
2022-08-28T03:51:29.576Z,21.20
2022-08-28T03:54:15.292Z,21.10
2022-08-28T03:57:00.695Z,21.10
2022-08-28T03:59:51.144Z,21.10
2022-08-28T04:02:36.477Z,21.10
2022-08-28T04:05:22.263Z,21.10
2022-08-28T04:08:14.060Z,21.00
2022-08-28T04:11:00.805Z,21.00
2022-08-28T04:13:46.220Z,21.00
2022-08-28T04:16:31.535Z,21.00
2022-08-28T04:19:16.753Z,20.90
2022-08-28T04:22:02.122Z,20.90
2022-08-28T04:24:47.524Z,20.80
2022-08-28T04:27:33.339Z,20.90
2022-08-28T04:30:18.827Z,20.80
2022-08-28T04:33:06.064Z,20.70
2022-08-28T04:35:51.881Z,20.70
2022-08-28T04:38:43.544Z,20.70
2022-08-28T04:41:29.837Z,20.70
2022-08-28T04:44:14.874Z,20.70
2022-08-28T04:47:00.583Z,20.60
2022-08-28T04:49:47.115Z,20.70
2022-08-28T04:52:32.513Z,20.70
2022-08-28T04:55:18.948Z,20.70
2022-08-28T04:58:25.223Z,20.80
2022-08-28T05:01:18.697Z,20.80
2022-08-28T05:04:04.580Z,20.80
2022-08-28T05:06:49.626Z,20.80
2022-08-28T05:09:36.010Z,20.90
2022-08-28T05:12:22.156Z,20.70
2022-08-28T05:15:07.979Z,20.70
2022-08-28T05:17:53.803Z,20.70
2022-08-28T05:20:41.031Z,20.60
2022-08-28T05:23:26.306Z,20.70
2022-08-28T05:26:16.321Z,20.70
2022-08-28T05:29:02.177Z,20.70
2022-08-28T05:31:48.110Z,20.70
2022-08-28T05:34:33.294Z,20.80
2022-08-28T05:37:19.790Z,20.80
2022-08-28T05:40:05.549Z,20.80
2022-08-28T05:42:51.591Z,20.80
2022-08-28T05:45:36.779Z,20.90
2022-08-28T05:48:22.069Z,20.80
2022-08-28T05:51:09.885Z,20.80
2022-08-28T05:53:57.521Z,20.80
2022-08-28T05:56:45.231Z,20.70
2022-08-28T05:59:30.350Z,20.70
2022-08-28T06:02:16.494Z,20.70
2022-08-28T06:05:01.887Z,20.80
2022-08-28T06:07:47.197Z,20.90
2022-08-28T06:10:32.701Z,20.70
2022-08-28T06:13:19.373Z,20.90
2022-08-28T06:16:08.697Z,20.90
2022-08-28T06:18:55.239Z,21.00
2022-08-28T06:21:41.594Z,21.10
2022-08-28T06:24:28.265Z,21.10
2022-08-28T06:27:13.219Z,21.20
2022-08-28T06:29:58.683Z,21.10
2022-08-28T06:32:44.180Z,21.10
2022-08-28T06:35:31.197Z,21.20
2022-08-28T06:38:17.995Z,21.20
2022-08-28T06:41:09.182Z,21.20
2022-08-28T06:43:55.379Z,21.20
2022-08-28T06:46:41.628Z,21.10
2022-08-28T06:49:26.778Z,21.20
2022-08-28T06:52:12.149Z,21.20
2022-08-28T06:54:58.831Z,21.20
2022-08-28T06:57:44.005Z,21.30
2022-08-28T07:00:29.420Z,21.30
2022-08-28T07:03:14.823Z,21.40
2022-08-28T07:06:05.645Z,21.40
2022-08-28T07:08:51.164Z,21.50
2022-08-28T07:11:37.644Z,21.40
2022-08-28T07:14:23.640Z,21.50
2022-08-28T07:17:11.604Z,21.50
2022-08-28T07:19:57.090Z,21.50
2022-08-28T07:22:42.456Z,21.50
2022-08-28T07:25:27.751Z,21.60
2022-08-28T07:28:13.276Z,21.60
2022-08-28T07:31:00.546Z,21.60
2022-08-28T07:33:46.070Z,21.60
2022-08-28T07:36:31.277Z,21.60
2022-08-28T07:39:16.667Z,21.50
2022-08-28T07:42:02.344Z,21.50
2022-08-28T07:44:50.572Z,21.60
2022-08-28T07:47:36.673Z,21.70
2022-08-28T07:50:22.199Z,21.80
2022-08-28T07:53:08.103Z,22.00
2022-08-28T07:55:53.388Z,22.10
2022-08-28T07:58:38.805Z,22.10
2022-08-28T08:01:25.418Z,22.10
2022-08-28T08:04:13.256Z,22.20
2022-08-28T08:06:58.765Z,22.10
2022-08-28T08:09:44.632Z,22.30
2022-08-28T08:12:30.393Z,22.30
2022-08-28T08:15:16.043Z,22.40
2022-08-28T08:18:01.383Z,22.50
2022-08-28T08:20:46.922Z,22.40
2022-08-28T08:23:37.213Z,22.30
2022-08-28T08:26:24.917Z,22.40
2022-08-28T08:29:10.461Z,22.40
2022-08-28T08:32:05.418Z,22.40
2022-08-28T08:34:53.966Z,22.50
2022-08-28T08:37:39.013Z,22.60
2022-08-28T08:40:24.522Z,22.60
2022-08-28T08:43:10.462Z,22.70
2022-08-28T08:45:55.530Z,22.50
2022-08-28T08:48:44.379Z,22.50
2022-08-28T08:51:44.432Z,22.50
2022-08-28T08:54:29.487Z,22.50
2022-08-28T08:57:15.479Z,22.50
2022-08-28T09:00:04.069Z,22.60
2022-08-28T09:03:18.741Z,22.70
2022-08-28T09:06:05.768Z,22.70
2022-08-28T09:08:57.957Z,22.80
2022-08-28T09:11:57.022Z,22.80
2022-08-28T09:15:05.417Z,22.80
2022-08-28T09:17:54.957Z,22.80
2022-08-28T09:20:40.937Z,22.80
2022-08-28T09:23:29.868Z,22.80
2022-08-28T09:26:22.689Z,22.90
2022-08-28T09:29:14.492Z,23.00
2022-08-28T09:32:35.478Z,23.10
2022-08-28T09:35:23.875Z,23.20
2022-08-28T09:38:21.553Z,23.30
2022-08-28T09:41:30.273Z,23.30
2022-08-28T09:44:15.867Z,23.40
2022-08-28T09:47:00.908Z,23.50
2022-08-28T09:49:46.381Z,23.60
2022-08-28T09:52:31.665Z,23.50
2022-08-28T09:55:46.092Z,23.60
2022-08-28T09:58:54.625Z,23.70
2022-08-28T10:01:51.315Z,23.90
2022-08-28T10:04:45.831Z,23.70
2022-08-28T10:07:47.876Z,23.70
2022-08-28T10:10:50.518Z,23.80
2022-08-28T10:13:44.682Z,24.00
2022-08-28T10:16:59.303Z,24.00
2022-08-28T10:19:52.997Z,24.10
2022-08-28T10:23:03.214Z,24.20
2022-08-28T10:26:13.495Z,24.10
2022-08-28T10:29:15.707Z,24.20
2022-08-28T10:32:32.588Z,24.30
2022-08-28T10:35:22.833Z,24.20
2022-08-28T10:38:19.569Z,24.10
2022-08-28T10:41:08.356Z,24.10
2022-08-28T10:43:55.096Z,24.00
2022-08-28T10:46:46.215Z,24.00
2022-08-28T10:49:41.606Z,24.10
2022-08-28T10:52:32.731Z,24.20
2022-08-28T10:55:34.504Z,24.30
2022-08-28T10:58:27.426Z,24.30
2022-08-28T11:01:19.362Z,24.50
2022-08-28T11:04:09.772Z,24.90
2022-08-28T11:07:16.475Z,25.10
2022-08-28T11:10:39.606Z,25.30
2022-08-28T11:14:04.919Z,25.40
2022-08-28T11:17:04.382Z,25.40
2022-08-28T11:20:13.569Z,25.60
2022-08-28T11:23:24.530Z,25.90
2022-08-28T11:26:12.777Z,26.00
2022-08-28T11:28:58.108Z,26.10
2022-08-28T11:31:43.548Z,26.10
2022-08-28T11:35:06.302Z,26.20
2022-08-28T11:37:54.840Z,26.40
2022-08-28T11:40:53.647Z,26.70
2022-08-28T11:43:42.333Z,26.90
2022-08-28T11:46:33.514Z,27.20
2022-08-28T11:49:34.416Z,27.70
2022-08-28T11:52:22.826Z,28.00
2022-08-28T11:55:13.773Z,28.50
2022-08-28T11:58:15.544Z,28.60
2022-08-28T12:01:09.016Z,28.90
2022-08-28T12:03:54.320Z,28.60
2022-08-28T12:06:47.401Z,28.90
2022-08-28T12:09:42.971Z,28.50
2022-08-28T12:12:46.789Z,28.10
2022-08-28T12:15:32.286Z,28.10
2022-08-28T12:18:56.116Z,28.40
2022-08-28T12:21:42.707Z,28.10
2022-08-28T12:24:28.889Z,27.90
2022-08-28T12:27:15.763Z,28.10
2022-08-28T12:30:02.261Z,28.30
2022-08-28T12:33:06.181Z,28.90
2022-08-28T12:35:51.516Z,28.90
2022-08-28T12:38:37.815Z,28.90
2022-08-28T12:41:24.540Z,29.20
2022-08-28T12:44:12.210Z,29.60
2022-08-28T12:46:58.961Z,29.40
2022-08-28T12:49:44.303Z,29.70
2022-08-28T12:52:32.635Z,29.60
2022-08-28T12:55:23.743Z,30.10
2022-08-28T12:58:28.887Z,30.30
2022-08-28T13:01:24.258Z,30.10
2022-08-28T13:04:32.815Z,30.00
2022-08-28T13:07:29.661Z,30.20
2022-08-28T13:10:26.700Z,30.00
2022-08-28T13:13:26.833Z,30.30
2022-08-28T13:16:13.827Z,30.60
2022-08-28T13:19:05.153Z,30.90
2022-08-28T13:22:00.395Z,30.60
2022-08-28T13:24:47.576Z,30.50
2022-08-28T13:27:33.002Z,29.80
2022-08-28T13:30:33.383Z,29.50
2022-08-28T13:33:24.502Z,29.50
2022-08-28T13:36:21.932Z,29.40
2022-08-28T13:39:07.125Z,29.00
2022-08-28T13:41:56.072Z,28.90
2022-08-28T13:44:48.874Z,28.80
2022-08-28T13:47:33.994Z,29.00
2022-08-28T13:50:19.371Z,29.20
2022-08-28T13:53:05.052Z,29.50
2022-08-28T13:55:51.760Z,29.80
2022-08-28T13:58:37.177Z,29.90
2022-08-28T14:01:44.158Z,30.20
2022-08-28T14:04:29.518Z,30.00
2022-08-28T14:07:15.844Z,29.60
2022-08-28T14:10:01.829Z,29.30
2022-08-28T14:12:48.815Z,29.00
2022-08-28T14:15:34.253Z,28.80
2022-08-28T14:18:20.775Z,28.70
2022-08-28T14:21:06.566Z,28.80
2022-08-28T14:23:51.640Z,28.70
2022-08-28T14:26:37.253Z,28.80
2022-08-28T14:29:22.471Z,28.80
2022-08-28T14:32:07.928Z,28.70
2022-08-28T14:34:53.353Z,28.80
2022-08-28T14:37:38.631Z,28.80
2022-08-28T14:40:24.002Z,28.80
2022-08-28T14:43:10.837Z,29.20
2022-08-28T14:45:56.226Z,29.60
2022-08-28T14:48:41.474Z,30.00
2022-08-28T14:51:27.640Z,30.30
2022-08-28T14:54:16.121Z,30.40
2022-08-28T14:57:01.200Z,30.40
2022-08-28T14:59:46.697Z,30.30
2022-08-28T15:02:31.843Z,30.30
2022-08-28T15:05:17.271Z,29.90
2022-08-28T15:08:13.630Z,30.00
2022-08-28T15:10:59.083Z,30.30
2022-08-28T15:13:46.115Z,30.50
2022-08-28T15:16:33.527Z,30.60
2022-08-28T15:19:19.263Z,30.80
2022-08-28T15:22:04.823Z,31.00
2022-08-28T15:24:53.161Z,31.10
2022-08-28T15:27:41.316Z,31.10
2022-08-28T15:30:26.896Z,31.10
2022-08-28T15:33:13.307Z,31.10
2022-08-28T15:35:58.944Z,31.20
2022-08-28T15:39:03.000Z,31.30
2022-08-28T15:41:48.316Z,31.20
2022-08-28T15:44:34.417Z,31.20
2022-08-28T15:47:19.918Z,31.30
2022-08-28T15:50:05.624Z,31.10
2022-08-28T15:52:53.482Z,31.10
2022-08-28T15:55:38.785Z,31.00
2022-08-28T15:58:24.005Z,30.90
2022-08-28T16:01:09.853Z,30.80
2022-08-28T16:03:54.943Z,30.60
2022-08-28T16:06:41.766Z,30.60
2022-08-28T16:09:26.922Z,30.50
2022-08-28T16:12:12.473Z,30.60
2022-08-28T16:14:57.671Z,30.40
2022-08-28T16:17:43.029Z,30.40
2022-08-28T16:20:28.940Z,30.30
2022-08-28T16:23:14.135Z,29.90
2022-08-28T16:26:00.387Z,29.90
2022-08-28T16:28:45.828Z,30.00
2022-08-28T16:31:31.478Z,30.00
2022-08-28T16:34:19.468Z,29.70
2022-08-28T16:37:05.740Z,29.60
2022-08-28T16:39:54.862Z,29.60
2022-08-28T16:42:41.346Z,29.60
2022-08-28T16:45:27.992Z,29.60
2022-08-28T16:48:15.461Z,29.60
2022-08-28T16:51:00.931Z,29.60
2022-08-28T16:53:46.736Z,29.50
2022-08-28T16:56:31.939Z,29.40
2022-08-28T16:59:20.371Z,29.30
2022-08-28T17:02:09.771Z,29.10
2022-08-28T17:05:00.469Z,29.10
2022-08-28T17:07:47.185Z,28.80
2022-08-28T17:10:34.721Z,28.70
2022-08-28T17:13:19.737Z,28.60
2022-08-28T17:16:05.985Z,28.50
2022-08-28T17:18:52.638Z,28.20
2022-08-28T17:21:56.424Z,28.00
2022-08-28T17:24:41.715Z,27.90
2022-08-28T17:27:28.143Z,27.60
2022-08-28T17:30:18.008Z,27.40
2022-08-28T17:33:03.115Z,27.20
2022-08-28T17:35:50.300Z,27.00
2022-08-28T17:38:37.622Z,26.90
2022-08-28T17:41:22.830Z,26.80
2022-08-28T17:44:08.934Z,26.60
2022-08-28T17:46:54.474Z,26.40
2022-08-28T17:49:40.301Z,26.30
2022-08-28T17:52:25.746Z,26.10
2022-08-28T17:55:11.486Z,26.00
2022-08-28T17:57:56.789Z,25.90
2022-08-28T18:00:44.211Z,25.90
2022-08-28T18:03:30.980Z,25.80
2022-08-28T18:06:23.926Z,25.60
2022-08-28T18:09:09.778Z,25.60
2022-08-28T18:11:55.040Z,25.40
2022-08-28T18:14:41.197Z,25.30
2022-08-28T18:17:27.766Z,25.30
2022-08-28T18:20:13.397Z,25.30
2022-08-28T18:22:58.787Z,25.20
2022-08-28T18:25:51.025Z,25.20
2022-08-28T18:28:37.789Z,25.20
2022-08-28T18:31:23.436Z,25.00
2022-08-28T18:34:09.333Z,24.90
2022-08-28T18:36:55.379Z,24.80
2022-08-28T18:39:40.744Z,24.80
2022-08-28T18:42:27.520Z,24.90
2022-08-28T18:45:13.265Z,24.80
2022-08-28T18:48:00.027Z,24.70
2022-08-28T18:50:47.503Z,24.60
2022-08-28T18:53:33.252Z,24.60
2022-08-28T18:56:18.916Z,24.60
2022-08-28T18:59:06.762Z,24.60
2022-08-28T19:01:52.266Z,24.50
2022-08-28T19:04:38.080Z,24.50
2022-08-28T19:07:23.432Z,24.50
2022-08-28T19:10:28.042Z,24.50
2022-08-28T19:13:16.215Z,24.40
2022-08-28T19:16:02.196Z,24.10
2022-08-28T19:18:48.086Z,24.00
2022-08-28T19:21:38.306Z,23.90
2022-08-28T19:24:24.289Z,23.70
2022-08-28T19:27:10.641Z,23.70
2022-08-28T19:29:56.176Z,23.70
2022-08-28T19:32:43.399Z,23.50
2022-08-28T19:35:28.850Z,23.40
2022-08-28T19:38:14.180Z,23.50
2022-08-28T19:41:00.038Z,23.40
2022-08-28T19:43:45.413Z,23.40
2022-08-28T19:46:31.418Z,23.40
2022-08-28T19:49:17.086Z,23.50
2022-08-28T19:52:03.489Z,23.50
2022-08-28T19:54:49.773Z,23.50
2022-08-28T19:57:35.675Z,23.50
2022-08-28T20:00:24.445Z,23.50
2022-08-28T20:03:09.726Z,23.50
2022-08-28T20:05:55.804Z,23.40
2022-08-28T20:08:41.273Z,23.40
2022-08-28T20:11:30.054Z,23.30
2022-08-28T20:14:18.187Z,23.30
2022-08-28T20:17:03.412Z,23.30
2022-08-28T20:19:49.962Z,23.30
2022-08-28T20:22:35.607Z,23.50
2022-08-28T20:25:23.726Z,23.50
2022-08-28T20:28:09.185Z,23.50
2022-08-28T20:30:54.895Z,23.50
2022-08-28T20:33:40.859Z,23.60
2022-08-28T20:36:27.164Z,23.50
2022-08-28T20:39:13.112Z,23.50
2022-08-28T20:41:58.733Z,23.40
2022-08-28T20:44:44.296Z,23.40
2022-08-28T20:47:29.859Z,23.50
2022-08-28T20:50:15.727Z,23.50
2022-08-28T20:53:03.825Z,23.50
2022-08-28T20:55:50.336Z,23.40
2022-08-28T20:58:36.299Z,23.40
2022-08-28T21:01:21.656Z,23.40
2022-08-28T21:04:07.101Z,23.30
2022-08-28T21:06:52.533Z,23.20
2022-08-28T21:10:04.168Z,23.10
2022-08-28T21:12:43.927Z,23.10
2022-08-28T21:15:29.776Z,23.00
2022-08-28T21:18:15.893Z,23.10
2022-08-28T21:21:07.472Z,22.90
2022-08-28T21:23:55.639Z,22.80
2022-08-28T21:26:43.296Z,22.80
2022-08-28T21:29:28.915Z,22.80
2022-08-28T21:32:14.172Z,22.80
2022-08-28T21:35:01.029Z,22.70
2022-08-28T21:37:46.254Z,22.70
2022-08-28T21:40:31.999Z,22.70
2022-08-28T21:43:17.522Z,22.70
2022-08-28T21:46:04.535Z,22.70
2022-08-28T21:48:50.808Z,22.70
2022-08-28T21:51:36.185Z,22.60
2022-08-28T21:54:23.084Z,22.50
2022-08-28T21:57:08.470Z,22.50
2022-08-28T21:59:54.499Z,22.50
2022-08-28T22:02:40.029Z,22.40
2022-08-28T22:05:28.241Z,22.30
2022-08-28T22:08:14.433Z,22.30
2022-08-28T22:10:59.656Z,22.30
2022-08-28T22:13:45.505Z,22.20
2022-08-28T22:16:31.427Z,22.20
2022-08-28T22:19:19.328Z,22.10
2022-08-28T22:22:23.323Z,22.10
2022-08-28T22:25:08.879Z,22.10
2022-08-28T22:27:54.651Z,22.20
2022-08-28T22:30:40.091Z,22.10
2022-08-28T22:33:25.733Z,22.10
2022-08-28T22:36:12.167Z,22.10
2022-08-28T22:38:57.275Z,22.00
2022-08-28T22:41:43.172Z,22.00
2022-08-28T22:44:28.340Z,22.10
2022-08-28T22:47:13.888Z,22.10
2022-08-28T22:49:59.647Z,22.00
2022-08-28T22:52:49.496Z,22.10
2022-08-28T22:55:35.620Z,22.10
2022-08-28T22:58:22.116Z,21.90
2022-08-28T23:01:12.178Z,21.70
2022-08-28T23:03:57.819Z,21.80
2022-08-28T23:06:43.437Z,21.80
2022-08-28T23:09:28.833Z,21.80
2022-08-28T23:12:14.029Z,21.80
2022-08-28T23:14:59.439Z,21.80
2022-08-28T23:17:45.340Z,21.80
2022-08-28T23:20:31.709Z,21.80
2022-08-28T23:23:18.872Z,21.80
2022-08-28T23:26:04.464Z,21.80
2022-08-28T23:28:50.416Z,21.80
2022-08-28T23:31:36.173Z,21.90
2022-08-28T23:34:21.595Z,21.70
2022-08-28T23:37:07.052Z,21.70
2022-08-28T23:39:52.462Z,21.60
2022-08-28T23:42:40.481Z,21.60
2022-08-28T23:45:26.092Z,21.40
2022-08-28T23:48:13.591Z,21.30
2022-08-28T23:50:59.635Z,21.10
2022-08-28T23:53:44.856Z,21.10
2022-08-28T23:56:30.317Z,21.10
2022-08-28T23:59:15.618Z,21.10
